Huadong Pearl 8 — 3EQX7 — position and weather

sailwx.info

Track history (hours):
 
Tides and Currents Weather Stations Pressure Air Temp Water Temp Dewpoint Dewpoint Depression Visibility Wind Speed Wind Dir Waves Ship Positions

Huadong Pearl 8

Last reported at 2016-Dec-25 15:33 UTC. Time now 2017-Feb-22 01:44 UTC.
Position N 36°51' E 122°53'.
Warning: this ship's position is 58 days out of date.

Length 196 m; draft 6.4 m.

Type: Passenger vessel. MMSI: 374869000.

Date/timePositionNaut miles runAvg speedWind from/ knotsBaromVisibWave heightAir tempDewpointWater temp
2016-Dec-25 15:33N 36°51' E 122°53'1918.9
2016-Dec-25 14:33N 36°51' E 122°30'3 2.7
2016-Dec-25 13:33N 36°53' E 122°27'0 0.0
2016-Dec-25 12:31N 36°53' E 122°27'0 0.0
2016-Dec-25 11:19N 36°53' E 122°27'0 0.0
2016-Dec-25 10:31N 36°53' E 122°27'0 0.0
2016-Dec-25 09:25N 36°53' E 122°27'0 0.0
2016-Dec-25 08:31N 36°53' E 122°27'0 0.0
2016-Dec-25 07:31N 36°53' E 122°27'0 0.0
2016-Dec-25 06:19N 36°53' E 122°27'0 0.0
2016-Dec-25 05:31N 36°53' E 122°27'0 0.0
2016-Dec-25 04:19N 36°53' E 122°27'0 0.0
2016-Dec-25 03:31N 36°53' E 122°27'0 0.0
2016-Dec-25 02:19N 36°53' E 122°27'0 0.0
2016-Dec-25 01:31N 36°53' E 122°27'0 0.0
2016-Dec-24 22:07N 36°53' E 122°27'0 0.0
2016-Dec-24 21:25N 36°53' E 122°27'0 0.0
2016-Dec-24 18:31N 36°53' E 122°27'0 0.0
2016-Dec-24 17:31N 36°53' E 122°27'0 0.0
2016-Dec-24 16:19N 36°53' E 122°27'0 0.0
2016-Dec-24 15:31N 36°53' E 122°27'0 0.0
2016-Dec-24 14:25N 36°53' E 122°27'0 0.0
2016-Dec-24 13:31N 36°53' E 122°27'0 0.0
2016-Dec-24 12:31N 36°53' E 122°27'0 0.0
2016-Dec-24 11:25N 36°53' E 122°27'0 0.0
2016-Dec-24 10:31N 36°53' E 122°27'0 0.0
2016-Dec-24 08:25N 36°53' E 122°27'0 0.0
2016-Dec-24 07:25N 36°53' E 122°27'0 0.0
2016-Dec-24 05:31N 36°53' E 122°27'0 0.0
2016-Dec-24 04:31N 36°53' E 122°27'0 0.0
2016-Dec-24 03:31N 36°53' E 122°27'0 0.0
2016-Dec-24 02:13N 36°53' E 122°27'0 0.0
2016-Dec-24 01:25N 36°53' E 122°27'0 0.0
2016-Dec-24 00:31N 36°53' E 122°27'8 7.9
2016-Dec-23 23:33N 36°51' E 122°36'1616.2
2016-Dec-23 22:33N 36°51' E 122°56'11 0.4
2016-Dec-22 17:32N 36°51' E 123°09'1819.1
2016-Dec-22 16:33N 36°50' E 122°46'1615.8
2016-Dec-22 15:33N 36°53' E 122°27'0 0.3
2016-Dec-22 14:26N 36°53' E 122°27'0 0.0
2016-Dec-22 13:32N 36°53' E 122°27'0 0.0
2016-Dec-22 12:26N 36°53' E 122°27'0 0.0
2016-Dec-22 11:32N 36°53' E 122°27'0 0.0
2016-Dec-22 10:20N 36°53' E 122°27'0 0.0
2016-Dec-22 09:32N 36°53' E 122°27'0 0.0
2016-Dec-22 08:32N 36°53' E 122°27'0 0.0
2016-Dec-22 07:32N 36°53' E 122°27'0 0.0
2016-Dec-22 06:32N 36°53' E 122°27'0 0.0
2016-Dec-22 05:32N 36°53' E 122°27'0 0.0
2016-Dec-22 04:32N 36°53' E 122°27'0 0.0
2016-Dec-22 03:26N 36°53' E 122°27'0 0.0
2016-Dec-22 02:32N 36°53' E 122°27'0 0.0
2016-Dec-22 01:32N 36°53' E 122°27'0 0.0
2016-Dec-22 00:33N 36°53' E 122°27'7 6.7
2016-Dec-21 23:34N 36°50' E 122°34'1212.1
2016-Dec-21 22:34N 36°49' E 122°49'2 0.1
2016-Dec-20 14:24N 36°50' E 122°52'1619.4
2016-Dec-20 13:33N 36°51' E 122°31'4 4.1
2016-Dec-20 12:33N 36°53' E 122°27'0 0.0
2016-Dec-20 11:31N 36°53' E 122°27'0 0.0
2016-Dec-20 10:31N 36°53' E 122°27'0 0.0
2016-Dec-20 09:31N 36°53' E 122°27'0 0.0
2016-Dec-20 08:31N 36°53' E 122°27'0 0.0
2016-Dec-20 07:31N 36°53' E 122°27'0 0.0
2016-Dec-20 06:31N 36°53' E 122°27'0 0.0
2016-Dec-20 05:31N 36°53' E 122°27'0 0.0
2016-Dec-20 04:31N 36°53' E 122°27'0 0.0
2016-Dec-20 03:19N 36°53' E 122°27'0 0.0
2016-Dec-20 02:19N 36°53' E 122°27'0 0.0
2016-Dec-20 01:31N 36°53' E 122°27'0 0.0
2016-Dec-20 00:29N 36°53' E 122°27'7 7.6
2016-Dec-19 23:33N 36°51' E 122°35'1615.8
2016-Dec-19 22:33N 36°51' E 122°55'9 0.3
2016-Dec-18 16:17N 36°52' E 123°06'1419.4
2016-Dec-18 15:33N 36°51' E 122°49'1717.0
2016-Dec-18 14:33N 36°53' E 122°28'1 0.8
2016-Dec-18 13:33N 36°53' E 122°27'0 0.0
2016-Dec-18 12:33N 36°53' E 122°27'0 0.0
2016-Dec-18 11:33N 36°53' E 122°27'0 0.0
2016-Dec-18 10:33N 36°53' E 122°27'0 0.0
2016-Dec-18 09:27N 36°53' E 122°27'0 0.0
2016-Dec-18 08:21N 36°53' E 122°27'0 0.0
2016-Dec-18 07:33N 36°53' E 122°27'0 0.0
2016-Dec-18 06:33N 36°53' E 122°27'0 0.0
2016-Dec-18 05:33N 36°53' E 122°27'0 0.0
2016-Dec-18 04:33N 36°53' E 122°27'0 0.0
2016-Dec-18 03:33N 36°53' E 122°27'0 0.0
2016-Dec-18 02:33N 36°53' E 122°27'0 0.0
2016-Dec-18 01:33N 36°53' E 122°27'0 0.0
2016-Dec-18 00:33N 36°53' E 122°27'0 0.0
2016-Dec-17 23:03N 36°53' E 122°27'0 0.0
2016-Dec-17 22:33N 36°53' E 122°27'0 0.0
2016-Dec-17 21:27N 36°53' E 122°27'0 0.0
2016-Dec-17 20:15N 36°53' E 122°27'0 0.0
2016-Dec-17 19:27N 36°53' E 122°27'0 0.0
2016-Dec-17 18:33N 36°53' E 122°27'0 0.0
2016-Dec-17 17:27N 36°53' E 122°27'0 0.0
2016-Dec-17 16:33N 36°53' E 122°27'0 0.0
2016-Dec-17 15:21N 36°53' E 122°27'0 0.0
2016-Dec-17 14:27N 36°53' E 122°27'0 0.0
2016-Dec-17 13:33N 36°53' E 122°27'0 0.0
2016-Dec-17 12:27N 36°53' E 122°27'0 0.0
2016-Dec-17 11:27N 36°53' E 122°27'0 0.0
2016-Dec-17 10:33N 36°53' E 122°27'0 0.0
2016-Dec-17 09:27N 36°53' E 122°27'0 0.0
2016-Dec-17 08:33N 36°53' E 122°27'0 0.0
2016-Dec-17 07:33N 36°53' E 122°27'0 0.0
2016-Dec-17 06:33N 36°53' E 122°27'0 0.0
2016-Dec-17 05:33N 36°53' E 122°27'0 0.0
2016-Dec-17 04:33N 36°53' E 122°27'0 0.0
2016-Dec-17 03:33N 36°53' E 122°27'0 0.0
2016-Dec-17 02:33N 36°53' E 122°27'0 0.0
2016-Dec-17 01:33N 36°53' E 122°27'0 0.0
2016-Dec-17 00:33N 36°53' E 122°27'8 7.6
2016-Dec-16 23:33N 36°51' E 122°36'1515.2
2016-Dec-16 22:33N 36°51' E 122°55'  
Track history (hours):
 
Tides and Currents Weather Stations Pressure Air Temp Water Temp Dewpoint Dewpoint Depression Visibility Wind Speed Wind Dir Waves Ship Positions

Huadong Pearl 8

Last reported at 2016-Dec-25 15:33 UTC. Time now 2017-Feb-22 01:44 UTC.
Position N 36°51' E 122°53'.
Warning: this ship's position is 58 days out of date.

Length 196 m; draft 6.4 m.

Type: Passenger vessel. MMSI: 374869000.

Date/timePositionNaut miles runAvg speedWind from/ knotsBaromVisibWave heightAir tempDewpointWater temp
2016-Dec-25 15:33N 36°51' E 122°53'1918.9
2016-Dec-25 14:33N 36°51' E 122°30'3 2.7
2016-Dec-25 13:33N 36°53' E 122°27'0 0.0
2016-Dec-25 12:31N 36°53' E 122°27'0 0.0
2016-Dec-25 11:19N 36°53' E 122°27'0 0.0
2016-Dec-25 10:31N 36°53' E 122°27'0 0.0
2016-Dec-25 09:25N 36°53' E 122°27'0 0.0
2016-Dec-25 08:31N 36°53' E 122°27'0 0.0
2016-Dec-25 07:31N 36°53' E 122°27'0 0.0
2016-Dec-25 06:19N 36°53' E 122°27'0 0.0
2016-Dec-25 05:31N 36°53' E 122°27'0 0.0
2016-Dec-25 04:19N 36°53' E 122°27'0 0.0
2016-Dec-25 03:31N 36°53' E 122°27'0 0.0
2016-Dec-25 02:19N 36°53' E 122°27'0 0.0
2016-Dec-25 01:31N 36°53' E 122°27'0 0.0
2016-Dec-24 22:07N 36°53' E 122°27'0 0.0
2016-Dec-24 21:25N 36°53' E 122°27'0 0.0
2016-Dec-24 18:31N 36°53' E 122°27'0 0.0
2016-Dec-24 17:31N 36°53' E 122°27'0 0.0
2016-Dec-24 16:19N 36°53' E 122°27'0 0.0
2016-Dec-24 15:31N 36°53' E 122°27'0 0.0
2016-Dec-24 14:25N 36°53' E 122°27'0 0.0
2016-Dec-24 13:31N 36°53' E 122°27'0 0.0
2016-Dec-24 12:31N 36°53' E 122°27'0 0.0
2016-Dec-24 11:25N 36°53' E 122°27'0 0.0
2016-Dec-24 10:31N 36°53' E 122°27'0 0.0
2016-Dec-24 08:25N 36°53' E 122°27'0 0.0
2016-Dec-24 07:25N 36°53' E 122°27'0 0.0
2016-Dec-24 05:31N 36°53' E 122°27'0 0.0
2016-Dec-24 04:31N 36°53' E 122°27'0 0.0
2016-Dec-24 03:31N 36°53' E 122°27'0 0.0
2016-Dec-24 02:13N 36°53' E 122°27'0 0.0
2016-Dec-24 01:25N 36°53' E 122°27'0 0.0
2016-Dec-24 00:31N 36°53' E 122°27'8 7.9
2016-Dec-23 23:33N 36°51' E 122°36'1616.2
2016-Dec-23 22:33N 36°51' E 122°56'11 0.4
2016-Dec-22 17:32N 36°51' E 123°09'1819.1
2016-Dec-22 16:33N 36°50' E 122°46'1615.8
2016-Dec-22 15:33N 36°53' E 122°27'0 0.3
2016-Dec-22 14:26N 36°53' E 122°27'0 0.0
2016-Dec-22 13:32N 36°53' E 122°27'0 0.0
2016-Dec-22 12:26N 36°53' E 122°27'0 0.0
2016-Dec-22 11:32N 36°53' E 122°27'0 0.0
2016-Dec-22 10:20N 36°53' E 122°27'0 0.0
2016-Dec-22 09:32N 36°53' E 122°27'0 0.0
2016-Dec-22 08:32N 36°53' E 122°27'0 0.0
2016-Dec-22 07:32N 36°53' E 122°27'0 0.0
2016-Dec-22 06:32N 36°53' E 122°27'0 0.0
2016-Dec-22 05:32N 36°53' E 122°27'0 0.0
2016-Dec-22 04:32N 36°53' E 122°27'0 0.0
2016-Dec-22 03:26N 36°53' E 122°27'0 0.0
2016-Dec-22 02:32N 36°53' E 122°27'0 0.0
2016-Dec-22 01:32N 36°53' E 122°27'0 0.0
2016-Dec-22 00:33N 36°53' E 122°27'7 6.7
2016-Dec-21 23:34N 36°50' E 122°34'1212.1
2016-Dec-21 22:34N 36°49' E 122°49'2 0.1
2016-Dec-20 14:24N 36°50' E 122°52'1619.4
2016-Dec-20 13:33N 36°51' E 122°31'4 4.1
2016-Dec-20 12:33N 36°53' E 122°27'0 0.0
2016-Dec-20 11:31N 36°53' E 122°27'0 0.0
2016-Dec-20 10:31N 36°53' E 122°27'0 0.0
2016-Dec-20 09:31N 36°53' E 122°27'0 0.0
2016-Dec-20 08:31N 36°53' E 122°27'0 0.0
2016-Dec-20 07:31N 36°53' E 122°27'0 0.0
2016-Dec-20 06:31N 36°53' E 122°27'0 0.0
2016-Dec-20 05:31N 36°53' E 122°27'0 0.0
2016-Dec-20 04:31N 36°53' E 122°27'0 0.0
2016-Dec-20 03:19N 36°53' E 122°27'0 0.0
2016-Dec-20 02:19N 36°53' E 122°27'0 0.0
2016-Dec-20 01:31N 36°53' E 122°27'0 0.0
2016-Dec-20 00:29N 36°53' E 122°27'7 7.6
2016-Dec-19 23:33N 36°51' E 122°35'1615.8
2016-Dec-19 22:33N 36°51' E 122°55'9 0.3
2016-Dec-18 16:17N 36°52' E 123°06'1419.4
2016-Dec-18 15:33N 36°51' E 122°49'1717.0
2016-Dec-18 14:33N 36°53' E 122°28'1 0.8
2016-Dec-18 13:33N 36°53' E 122°27'0 0.0
2016-Dec-18 12:33N 36°53' E 122°27'0 0.0
2016-Dec-18 11:33N 36°53' E 122°27'0 0.0
2016-Dec-18 10:33N 36°53' E 122°27'0 0.0
2016-Dec-18 09:27N 36°53' E 122°27'0 0.0
2016-Dec-18 08:21N 36°53' E 122°27'0 0.0
2016-Dec-18 07:33N 36°53' E 122°27'0 0.0
2016-Dec-18 06:33N 36°53' E 122°27'0 0.0
2016-Dec-18 05:33N 36°53' E 122°27'0 0.0
2016-Dec-18 04:33N 36°53' E 122°27'0 0.0
2016-Dec-18 03:33N 36°53' E 122°27'0 0.0
2016-Dec-18 02:33N 36°53' E 122°27'0 0.0
2016-Dec-18 01:33N 36°53' E 122°27'0 0.0
2016-Dec-18 00:33N 36°53' E 122°27'0 0.0
2016-Dec-17 23:03N 36°53' E 122°27'0 0.0
2016-Dec-17 22:33N 36°53' E 122°27'0 0.0
2016-Dec-17 21:27N 36°53' E 122°27'0 0.0
2016-Dec-17 20:15N 36°53' E 122°27'0 0.0
2016-Dec-17 19:27N 36°53' E 122°27'0 0.0
2016-Dec-17 18:33N 36°53' E 122°27'0 0.0
2016-Dec-17 17:27N 36°53' E 122°27'0 0.0
2016-Dec-17 16:33N 36°53' E 122°27'0 0.0
2016-Dec-17 15:21N 36°53' E 122°27'0 0.0
2016-Dec-17 14:27N 36°53' E 122°27'0 0.0
2016-Dec-17 13:33N 36°53' E 122°27'0 0.0
2016-Dec-17 12:27N 36°53' E 122°27'0 0.0
2016-Dec-17 11:27N 36°53' E 122°27'0 0.0
2016-Dec-17 10:33N 36°53' E 122°27'0 0.0
2016-Dec-17 09:27N 36°53' E 122°27'0 0.0
2016-Dec-17 08:33N 36°53' E 122°27'0 0.0
2016-Dec-17 07:33N 36°53' E 122°27'0 0.0
2016-Dec-17 06:33N 36°53' E 122°27'0 0.0
2016-Dec-17 05:33N 36°53' E 122°27'0 0.0
2016-Dec-17 04:33N 36°53' E 122°27'0 0.0
2016-Dec-17 03:33N 36°53' E 122°27'0 0.0
2016-Dec-17 02:33N 36°53' E 122°27'0 0.0
2016-Dec-17 01:33N 36°53' E 122°27'0 0.0
2016-Dec-17 00:33N 36°53' E 122°27'8 7.6
2016-Dec-16 23:33N 36°51' E 122°36'1515.2
2016-Dec-16 22:33N 36°51' E 122°55'  

Dump ship's entire track history